sensor_id;sensor_type;location;lat;lon;timestamp;P1;durP1;ratioP1;P2;durP2;ratioP2
41059;SDS011;26811;53.160;8.202;2023-05-29T00:03:20;22.92;;;3.58;;
41059;SDS011;26811;53.160;8.202;2023-05-29T00:08:21;31.42;;;4.13;;
41059;SDS011;26811;53.160;8.202;2023-05-29T00:13:22;47.65;;;3.65;;
41059;SDS011;26811;53.160;8.202;2023-05-29T00:18:22;51.72;;;4.88;;
41059;SDS011;26811;53.160;8.202;2023-05-29T00:23:23;42.60;;;4.05;;
41059;SDS011;26811;53.160;8.202;2023-05-29T00:28:24;38.60;;;3.97;;
41059;SDS011;26811;53.160;8.202;2023-05-29T00:33:24;44.78;;;4.38;;
41059;SDS011;26811;53.160;8.202;2023-05-29T00:38:25;44.75;;;4.45;;
41059;SDS011;26811;53.160;8.202;2023-05-29T00:43:26;47.13;;;4.53;;
41059;SDS011;26811;53.160;8.202;2023-05-29T00:48:27;31.85;;;4.85;;
41059;SDS011;26811;53.160;8.202;2023-05-29T00:53:27;46.65;;;4.57;;
41059;SDS011;26811;53.160;8.202;2023-05-29T00:58:28;49.03;;;4.30;;
41059;SDS011;26811;53.160;8.202;2023-05-29T01:03:29;44.53;;;4.63;;
41059;SDS011;26811;53.160;8.202;2023-05-29T01:08:34;41.92;;;4.15;;
41059;SDS011;26811;53.160;8.202;2023-05-29T01:13:35;44.33;;;4.80;;
41059;SDS011;26811;53.160;8.202;2023-05-29T01:29:43;31.05;;;3.50;;
41059;SDS011;26811;53.160;8.202;2023-05-29T01:34:45;39.88;;;4.03;;
41059;SDS011;26811;53.160;8.202;2023-05-29T01:39:46;38.88;;;4.13;;
41059;SDS011;26811;53.160;8.202;2023-05-29T01:44:46;39.80;;;3.72;;
41059;SDS011;26811;53.160;8.202;2023-05-29T01:49:47;42.72;;;5.00;;
41059;SDS011;26811;53.160;8.202;2023-05-29T01:54:51;38.40;;;5.15;;
41059;SDS011;26811;53.160;8.202;2023-05-29T01:59:51;46.88;;;4.15;;
41059;SDS011;26811;53.160;8.202;2023-05-29T02:04:53;52.42;;;4.55;;
41059;SDS011;26811;53.160;8.202;2023-05-29T02:09:53;37.67;;;4.10;;
41059;SDS011;26811;53.160;8.202;2023-05-29T02:14:54;43.13;;;4.20;;
41059;SDS011;26811;53.160;8.202;2023-05-29T02:19:54;42.20;;;4.15;;
41059;SDS011;26811;53.160;8.202;2023-05-29T02:24:55;32.20;;;3.95;;
41059;SDS011;26811;53.160;8.202;2023-05-29T02:29:55;45.75;;;4.38;;
41059;SDS011;26811;53.160;8.202;2023-05-29T02:34:57;63.95;;;5.00;;
41059;SDS011;26811;53.160;8.202;2023-05-29T02:39:57;51.05;;;4.75;;
41059;SDS011;26811;53.160;8.202;2023-05-29T02:44:58;37.90;;;4.15;;
41059;SDS011;26811;53.160;8.202;2023-05-29T02:49:58;35.58;;;4.03;;
41059;SDS011;26811;53.160;8.202;2023-05-29T02:54:59;38.17;;;4.57;;
41059;SDS011;26811;53.160;8.202;2023-05-29T02:59:59;42.78;;;5.75;;
41059;SDS011;26811;53.160;8.202;2023-05-29T03:05:00;32.17;;;4.43;;
41059;SDS011;26811;53.160;8.202;2023-05-29T03:10:01;41.05;;;3.83;;
41059;SDS011;26811;53.160;8.202;2023-05-29T03:15:04;53.03;;;4.82;;
41059;SDS011;26811;53.160;8.202;2023-05-29T03:20:05;48.78;;;4.38;;
41059;SDS011;26811;53.160;8.202;2023-05-29T03:25:07;43.70;;;4.93;;
41059;SDS011;26811;53.160;8.202;2023-05-29T03:30:09;42.85;;;4.50;;
41059;SDS011;26811;53.160;8.202;2023-05-29T03:35:09;31.85;;;4.47;;
41059;SDS011;26811;53.160;8.202;2023-05-29T03:40:10;37.83;;;3.97;;
41059;SDS011;26811;53.160;8.202;2023-05-29T03:45:11;38.78;;;4.85;;
41059;SDS011;26811;53.160;8.202;2023-05-29T03:50:12;33.15;;;4.05;;
41059;SDS011;26811;53.160;8.202;2023-05-29T03:55:16;46.28;;;4.70;;
41059;SDS011;26811;53.160;8.202;2023-05-29T04:00:16;48.55;;;6.78;;
41059;SDS011;26811;53.160;8.202;2023-05-29T04:05:18;46.13;;;5.20;;
41059;SDS011;26811;53.160;8.202;2023-05-29T04:10:18;32.13;;;4.28;;
41059;SDS011;26811;53.160;8.202;2023-05-29T04:15:19;38.22;;;3.95;;
41059;SDS011;26811;53.160;8.202;2023-05-29T04:20:20;42.85;;;5.40;;
41059;SDS011;26811;53.160;8.202;2023-05-29T04:25:20;45.47;;;4.45;;
41059;SDS011;26811;53.160;8.202;2023-05-29T04:30:21;43.20;;;4.45;;
41059;SDS011;26811;53.160;8.202;2023-05-29T04:35:21;44.15;;;5.88;;
41059;SDS011;26811;53.160;8.202;2023-05-29T04:40:22;40.97;;;4.47;;
41059;SDS011;26811;53.160;8.202;2023-05-29T04:45:22;38.15;;;4.90;;
41059;SDS011;26811;53.160;8.202;2023-05-29T04:50:23;41.55;;;4.60;;
41059;SDS011;26811;53.160;8.202;2023-05-29T04:55:24;43.92;;;4.85;;
41059;SDS011;26811;53.160;8.202;2023-05-29T05:00:25;51.25;;;5.78;;
41059;SDS011;26811;53.160;8.202;2023-05-29T05:05:26;46.63;;;4.35;;
41059;SDS011;26811;53.160;8.202;2023-05-29T05:10:27;43.90;;;4.32;;
41059;SDS011;26811;53.160;8.202;2023-05-29T05:15:28;40.58;;;5.22;;
41059;SDS011;26811;53.160;8.202;2023-05-29T05:20:28;38.95;;;4.10;;
41059;SDS011;26811;53.160;8.202;2023-05-29T05:25:29;33.58;;;4.68;;
41059;SDS011;26811;53.160;8.202;2023-05-29T05:30:30;53.45;;;5.90;;
41059;SDS011;26811;53.160;8.202;2023-05-29T05:35:31;47.03;;;4.97;;
41059;SDS011;26811;53.160;8.202;2023-05-29T05:40:31;46.95;;;5.10;;
41059;SDS011;26811;53.160;8.202;2023-05-29T05:45:32;38.38;;;4.65;;
41059;SDS011;26811;53.160;8.202;2023-05-29T05:50:32;39.08;;;6.93;;
41059;SDS011;26811;53.160;8.202;2023-05-29T05:55:33;48.33;;;5.45;;
41059;SDS011;26811;53.160;8.202;2023-05-29T06:00:34;57.92;;;5.47;;
41059;SDS011;26811;53.160;8.202;2023-05-29T06:05:34;47.65;;;4.80;;
41059;SDS011;26811;53.160;8.202;2023-05-29T06:10:36;44.75;;;5.95;;
41059;SDS011;26811;53.160;8.202;2023-05-29T06:15:37;50.33;;;5.20;;
41059;SDS011;26811;53.160;8.202;2023-05-29T06:20:37;53.30;;;4.80;;
41059;SDS011;26811;53.160;8.202;2023-05-29T06:25:38;40.75;;;4.50;;
41059;SDS011;26811;53.160;8.202;2023-05-29T06:30:44;47.65;;;5.07;;
41059;SDS011;26811;53.160;8.202;2023-05-29T06:35:45;55.40;;;5.32;;
41059;SDS011;26811;53.160;8.202;2023-05-29T06:40:45;52.33;;;6.20;;
41059;SDS011;26811;53.160;8.202;2023-05-29T06:45:46;55.50;;;6.22;;
41059;SDS011;26811;53.160;8.202;2023-05-29T06:50:47;37.40;;;5.28;;
41059;SDS011;26811;53.160;8.202;2023-05-29T06:55:48;51.33;;;6.63;;
41059;SDS011;26811;53.160;8.202;2023-05-29T07:00:48;56.00;;;6.57;;
41059;SDS011;26811;53.160;8.202;2023-05-29T07:05:49;59.28;;;6.03;;
41059;SDS011;26811;53.160;8.202;2023-05-29T07:10:49;50.03;;;5.53;;
41059;SDS011;26811;53.160;8.202;2023-05-29T07:15:50;57.08;;;6.15;;
41059;SDS011;26811;53.160;8.202;2023-05-29T07:20:51;49.47;;;6.95;;
41059;SDS011;26811;53.160;8.202;2023-05-29T07:25:51;58.00;;;5.95;;
41059;SDS011;26811;53.160;8.202;2023-05-29T07:30:52;63.22;;;6.10;;
41059;SDS011;26811;53.160;8.202;2023-05-29T07:35:52;46.25;;;5.40;;
41059;SDS011;26811;53.160;8.202;2023-05-29T07:40:53;45.15;;;6.60;;
41059;SDS011;26811;53.160;8.202;2023-05-29T07:45:53;45.00;;;6.63;;
41059;SDS011;26811;53.160;8.202;2023-05-29T07:50:54;54.10;;;5.68;;
41059;SDS011;26811;53.160;8.202;2023-05-29T07:55:55;57.45;;;6.78;;
41059;SDS011;26811;53.160;8.202;2023-05-29T08:00:55;55.42;;;7.22;;
41059;SDS011;26811;53.160;8.202;2023-05-29T08:05:56;51.63;;;7.00;;
41059;SDS011;26811;53.160;8.202;2023-05-29T08:10:57;49.78;;;6.70;;
41059;SDS011;26811;53.160;8.202;2023-05-29T08:15:57;43.75;;;6.70;;
41059;SDS011;26811;53.160;8.202;2023-05-29T08:20:58;48.20;;;6.45;;
41059;SDS011;26811;53.160;8.202;2023-05-29T08:25:59;56.53;;;8.07;;
41059;SDS011;26811;53.160;8.202;2023-05-29T08:30:59;60.08;;;6.60;;
41059;SDS011;26811;53.160;8.202;2023-05-29T08:36:00;55.30;;;6.63;;
41059;SDS011;26811;53.160;8.202;2023-05-29T08:41:00;42.55;;;5.53;;
41059;SDS011;26811;53.160;8.202;2023-05-29T08:46:02;57.97;;;7.00;;
41059;SDS011;26811;53.160;8.202;2023-05-29T08:51:03;54.42;;;6.47;;
41059;SDS011;26811;53.160;8.202;2023-05-29T08:56:05;63.00;;;6.67;;
41059;SDS011;26811;53.160;8.202;2023-05-29T09:01:06;45.33;;;6.57;;
41059;SDS011;26811;53.160;8.202;2023-05-29T09:06:07;61.83;;;7.10;;
41059;SDS011;26811;53.160;8.202;2023-05-29T09:11:08;49.13;;;6.10;;
41059;SDS011;26811;53.160;8.202;2023-05-29T09:16:09;58.92;;;6.40;;
41059;SDS011;26811;53.160;8.202;2023-05-29T09:21:10;51.47;;;7.80;;
41059;SDS011;26811;53.160;8.202;2023-05-29T09:26:10;46.28;;;6.43;;
41059;SDS011;26811;53.160;8.202;2023-05-29T09:31:14;56.72;;;6.70;;
41059;SDS011;26811;53.160;8.202;2023-05-29T09:36:20;53.10;;;6.03;;
41059;SDS011;26811;53.160;8.202;2023-05-29T09:41:22;43.58;;;6.65;;
41059;SDS011;26811;53.160;8.202;2023-05-29T09:46:23;52.38;;;7.60;;
41059;SDS011;26811;53.160;8.202;2023-05-29T09:51:24;50.80;;;7.65;;
41059;SDS011;26811;53.160;8.202;2023-05-29T09:56:25;64.32;;;7.00;;
41059;SDS011;26811;53.160;8.202;2023-05-29T10:01:28;67.95;;;7.30;;
41059;SDS011;26811;53.160;8.202;2023-05-29T10:06:29;52.20;;;6.47;;
41059;SDS011;26811;53.160;8.202;2023-05-29T10:11:30;62.45;;;7.00;;
41059;SDS011;26811;53.160;8.202;2023-05-29T10:16:32;52.70;;;7.00;;
41059;SDS011;26811;53.160;8.202;2023-05-29T10:21:37;54.25;;;6.55;;
41059;SDS011;26811;53.160;8.202;2023-05-29T10:26:40;52.53;;;7.30;;
41059;SDS011;26811;53.160;8.202;2023-05-29T10:37:36;50.28;;;6.60;;
41059;SDS011;26811;53.160;8.202;2023-05-29T10:42:46;56.50;;;6.57;;
41059;SDS011;26811;53.160;8.202;2023-05-29T10:47:53;55.47;;;6.15;;
41059;SDS011;26811;53.160;8.202;2023-05-29T10:52:53;43.20;;;6.55;;
41059;SDS011;26811;53.160;8.202;2023-05-29T10:57:54;52.42;;;7.00;;
41059;SDS011;26811;53.160;8.202;2023-05-29T11:02:55;56.10;;;6.53;;
41059;SDS011;26811;53.160;8.202;2023-05-29T11:07:56;64.00;;;7.60;;
41059;SDS011;26811;53.160;8.202;2023-05-29T11:12:58;55.90;;;6.75;;
41059;SDS011;26811;53.160;8.202;2023-05-29T11:18:09;53.60;;;6.70;;
41059;SDS011;26811;53.160;8.202;2023-05-29T11:23:16;67.55;;;6.65;;
41059;SDS011;26811;53.160;8.202;2023-05-29T11:28:20;55.80;;;6.38;;
41059;SDS011;26811;53.160;8.202;2023-05-29T11:33:26;63.70;;;7.00;;
41059;SDS011;26811;53.160;8.202;2023-05-29T11:38:28;52.25;;;6.38;;
41059;SDS011;26811;53.160;8.202;2023-05-29T11:43:29;71.93;;;7.65;;
41059;SDS011;26811;53.160;8.202;2023-05-29T11:48:30;59.38;;;7.13;;
41059;SDS011;26811;53.160;8.202;2023-05-29T11:53:30;59.20;;;6.80;;
41059;SDS011;26811;53.160;8.202;2023-05-29T11:58:31;52.53;;;7.15;;
41059;SDS011;26811;53.160;8.202;2023-05-29T12:03:39;57.63;;;6.40;;
41059;SDS011;26811;53.160;8.202;2023-05-29T12:08:43;51.83;;;6.45;;
41059;SDS011;26811;53.160;8.202;2023-05-29T12:13:44;57.03;;;7.22;;
41059;SDS011;26811;53.160;8.202;2023-05-29T12:18:54;55.35;;;6.85;;
41059;SDS011;26811;53.160;8.202;2023-05-29T12:23:55;60.10;;;6.78;;
41059;SDS011;26811;53.160;8.202;2023-05-29T12:28:56;65.22;;;6.72;;
41059;SDS011;26811;53.160;8.202;2023-05-29T12:34:07;59.80;;;6.80;;
41059;SDS011;26811;53.160;8.202;2023-05-29T12:39:08;64.80;;;8.82;;
41059;SDS011;26811;53.160;8.202;2023-05-29T12:44:10;63.90;;;6.65;;
41059;SDS011;26811;53.160;8.202;2023-05-29T12:49:13;64.07;;;6.72;;
41059;SDS011;26811;53.160;8.202;2023-05-29T12:54:21;50.72;;;6.07;;
41059;SDS011;26811;53.160;8.202;2023-05-29T13:01:17;58.33;;;6.20;;
41059;SDS011;26811;53.160;8.202;2023-05-29T13:06:18;58.33;;;5.75;;
41059;SDS011;26811;53.160;8.202;2023-05-29T13:11:28;53.90;;;6.25;;
41059;SDS011;26811;53.160;8.202;2023-05-29T13:16:29;58.25;;;7.10;;
41059;SDS011;26811;53.160;8.202;2023-05-29T13:21:30;45.00;;;5.80;;
41059;SDS011;26811;53.160;8.202;2023-05-29T13:26:30;45.03;;;5.25;;
41059;SDS011;26811;53.160;8.202;2023-05-29T13:31:31;48.95;;;5.35;;
41059;SDS011;26811;53.160;8.202;2023-05-29T13:36:34;45.38;;;5.15;;
41059;SDS011;26811;53.160;8.202;2023-05-29T13:41:36;42.97;;;6.73;;
41059;SDS011;26811;53.160;8.202;2023-05-29T13:46:37;37.47;;;5.20;;
41059;SDS011;26811;53.160;8.202;2023-05-29T13:51:37;49.13;;;6.13;;
41059;SDS011;26811;53.160;8.202;2023-05-29T13:56:38;42.95;;;5.45;;
41059;SDS011;26811;53.160;8.202;2023-05-29T14:01:38;41.10;;;5.18;;
41059;SDS011;26811;53.160;8.202;2023-05-29T14:06:39;41.50;;;6.05;;
41059;SDS011;26811;53.160;8.202;2023-05-29T14:11:40;31.45;;;5.20;;
41059;SDS011;26811;53.160;8.202;2023-05-29T14:16:40;46.85;;;6.93;;
41059;SDS011;26811;53.160;8.202;2023-05-29T14:21:41;51.88;;;5.68;;
41059;SDS011;26811;53.160;8.202;2023-05-29T14:26:42;54.85;;;6.03;;
41059;SDS011;26811;53.160;8.202;2023-05-29T14:31:43;48.13;;;5.30;;
41059;SDS011;26811;53.160;8.202;2023-05-29T14:36:44;52.83;;;6.15;;
41059;SDS011;26811;53.160;8.202;2023-05-29T14:41:45;33.97;;;5.97;;
41059;SDS011;26811;53.160;8.202;2023-05-29T14:46:45;42.47;;;5.63;;
41059;SDS011;26811;53.160;8.202;2023-05-29T14:51:46;42.53;;;6.22;;
41059;SDS011;26811;53.160;8.202;2023-05-29T14:56:46;40.03;;;5.80;;
41059;SDS011;26811;53.160;8.202;2023-05-29T15:01:47;46.22;;;5.15;;
41059;SDS011;26811;53.160;8.202;2023-05-29T15:06:47;37.70;;;5.90;;
41059;SDS011;26811;53.160;8.202;2023-05-29T15:11:48;40.78;;;5.18;;
41059;SDS011;26811;53.160;8.202;2023-05-29T15:16:48;44.25;;;5.15;;
41059;SDS011;26811;53.160;8.202;2023-05-29T15:21:49;48.83;;;6.28;;
41059;SDS011;26811;53.160;8.202;2023-05-29T15:26:49;36.70;;;5.40;;
41059;SDS011;26811;53.160;8.202;2023-05-29T15:31:50;38.08;;;4.57;;
41059;SDS011;26811;53.160;8.202;2023-05-29T15:36:51;33.10;;;4.70;;
41059;SDS011;26811;53.160;8.202;2023-05-29T15:41:51;44.30;;;5.70;;
41059;SDS011;26811;53.160;8.202;2023-05-29T15:46:52;54.92;;;5.72;;
41059;SDS011;26811;53.160;8.202;2023-05-29T15:51:52;39.13;;;5.70;;
41059;SDS011;26811;53.160;8.202;2023-05-29T15:56:53;45.88;;;5.47;;
41059;SDS011;26811;53.160;8.202;2023-05-29T16:01:54;43.60;;;5.30;;
41059;SDS011;26811;53.160;8.202;2023-05-29T16:06:54;50.40;;;5.28;;
41059;SDS011;26811;53.160;8.202;2023-05-29T16:11:55;49.17;;;5.35;;
41059;SDS011;26811;53.160;8.202;2023-05-29T16:16:55;42.65;;;5.05;;
41059;SDS011;26811;53.160;8.202;2023-05-29T16:21:56;38.22;;;5.40;;
41059;SDS011;26811;53.160;8.202;2023-05-29T16:26:57;37.75;;;5.13;;
41059;SDS011;26811;53.160;8.202;2023-05-29T16:31:57;33.88;;;4.65;;
41059;SDS011;26811;53.160;8.202;2023-05-29T16:37:01;44.80;;;4.80;;
41059;SDS011;26811;53.160;8.202;2023-05-29T16:42:02;43.33;;;4.93;;
41059;SDS011;26811;53.160;8.202;2023-05-29T16:47:05;37.60;;;4.65;;
41059;SDS011;26811;53.160;8.202;2023-05-29T16:52:08;36.75;;;4.85;;
41059;SDS011;26811;53.160;8.202;2023-05-29T16:57:09;45.17;;;5.10;;
41059;SDS011;26811;53.160;8.202;2023-05-29T17:02:12;42.55;;;4.63;;
41059;SDS011;26811;53.160;8.202;2023-05-29T17:07:13;43.60;;;4.57;;
41059;SDS011;26811;53.160;8.202;2023-05-29T17:12:13;44.92;;;5.20;;
41059;SDS011;26811;53.160;8.202;2023-05-29T17:17:14;49.00;;;4.80;;
41059;SDS011;26811;53.160;8.202;2023-05-29T17:22:15;33.90;;;5.75;;
41059;SDS011;26811;53.160;8.202;2023-05-29T17:27:15;39.65;;;4.75;;
41059;SDS011;26811;53.160;8.202;2023-05-29T17:32:16;30.50;;;4.15;;
41059;SDS011;26811;53.160;8.202;2023-05-29T17:37:16;45.80;;;4.32;;
41059;SDS011;26811;53.160;8.202;2023-05-29T17:42:20;44.88;;;4.72;;
41059;SDS011;26811;53.160;8.202;2023-05-29T17:47:46;32.30;;;5.13;;
41059;SDS011;26811;53.160;8.202;2023-05-29T17:52:47;40.45;;;3.97;;
41059;SDS011;26811;53.160;8.202;2023-05-29T17:57:54;42.50;;;4.78;;
41059;SDS011;26811;53.160;8.202;2023-05-29T18:02:55;30.13;;;3.22;;
41059;SDS011;26811;53.160;8.202;2023-05-29T18:07:56;30.60;;;4.72;;
41059;SDS011;26811;53.160;8.202;2023-05-29T18:12:56;45.92;;;4.30;;
41059;SDS011;26811;53.160;8.202;2023-05-29T18:17:57;43.72;;;4.82;;
41059;SDS011;26811;53.160;8.202;2023-05-29T18:22:58;39.42;;;4.82;;
41059;SDS011;26811;53.160;8.202;2023-05-29T18:27:58;56.42;;;4.97;;
41059;SDS011;26811;53.160;8.202;2023-05-29T18:32:59;44.90;;;5.28;;
41059;SDS011;26811;53.160;8.202;2023-05-29T18:38:02;39.85;;;4.50;;
41059;SDS011;26811;53.160;8.202;2023-05-29T18:43:02;45.15;;;4.80;;
41059;SDS011;26811;53.160;8.202;2023-05-29T18:48:03;47.55;;;5.10;;
41059;SDS011;26811;53.160;8.202;2023-05-29T18:53:04;43.80;;;5.18;;
41059;SDS011;26811;53.160;8.202;2023-05-29T18:58:04;33.03;;;4.57;;
41059;SDS011;26811;53.160;8.202;2023-05-29T19:03:05;53.22;;;6.63;;
41059;SDS011;26811;53.160;8.202;2023-05-29T19:08:05;40.67;;;5.18;;
41059;SDS011;26811;53.160;8.202;2023-05-29T19:13:10;46.33;;;5.72;;
41059;SDS011;26811;53.160;8.202;2023-05-29T19:18:11;43.20;;;5.97;;
41059;SDS011;26811;53.160;8.202;2023-05-29T19:23:20;49.08;;;5.50;;
41059;SDS011;26811;53.160;8.202;2023-05-29T19:28:21;46.63;;;5.05;;
41059;SDS011;26811;53.160;8.202;2023-05-29T19:33:22;47.28;;;5.40;;
41059;SDS011;26811;53.160;8.202;2023-05-29T19:38:25;43.63;;;5.43;;
41059;SDS011;26811;53.160;8.202;2023-05-29T19:43:26;48.00;;;5.70;;
41059;SDS011;26811;53.160;8.202;2023-05-29T19:48:28;50.33;;;5.70;;
41059;SDS011;26811;53.160;8.202;2023-05-29T19:53:28;50.58;;;5.63;;
41059;SDS011;26811;53.160;8.202;2023-05-29T19:58:29;47.75;;;6.05;;
41059;SDS011;26811;53.160;8.202;2023-05-29T20:03:29;46.05;;;5.82;;
41059;SDS011;26811;53.160;8.202;2023-05-29T20:08:31;60.22;;;5.95;;
41059;SDS011;26811;53.160;8.202;2023-05-29T20:13:32;43.65;;;6.47;;
41059;SDS011;26811;53.160;8.202;2023-05-29T20:18:32;45.72;;;6.10;;
41059;SDS011;26811;53.160;8.202;2023-05-29T20:23:34;44.97;;;6.10;;
41059;SDS011;26811;53.160;8.202;2023-05-29T20:28:37;46.72;;;5.75;;
41059;SDS011;26811;53.160;8.202;2023-05-29T20:33:38;54.53;;;7.47;;
41059;SDS011;26811;53.160;8.202;2023-05-29T20:38:38;48.88;;;6.57;;
41059;SDS011;26811;53.160;8.202;2023-05-29T20:43:42;47.63;;;5.88;;
41059;SDS011;26811;53.160;8.202;2023-05-29T20:48:48;59.63;;;6.78;;
41059;SDS011;26811;53.160;8.202;2023-05-29T20:53:49;51.25;;;6.95;;
41059;SDS011;26811;53.160;8.202;2023-05-29T20:58:49;48.90;;;7.22;;
41059;SDS011;26811;53.160;8.202;2023-05-29T21:03:50;58.67;;;7.65;;
41059;SDS011;26811;53.160;8.202;2023-05-29T21:08:51;73.72;;;7.93;;
41059;SDS011;26811;53.160;8.202;2023-05-29T21:13:52;57.20;;;7.25;;
41059;SDS011;26811;53.160;8.202;2023-05-29T21:18:53;60.30;;;7.45;;
41059;SDS011;26811;53.160;8.202;2023-05-29T21:23:53;55.10;;;7.28;;
41059;SDS011;26811;53.160;8.202;2023-05-29T21:28:55;58.10;;;7.75;;
41059;SDS011;26811;53.160;8.202;2023-05-29T21:33:55;67.88;;;7.75;;
41059;SDS011;26811;53.160;8.202;2023-05-29T21:38:56;54.80;;;7.35;;
41059;SDS011;26811;53.160;8.202;2023-05-29T21:43:57;60.97;;;7.20;;
41059;SDS011;26811;53.160;8.202;2023-05-29T21:48:57;58.85;;;7.43;;
41059;SDS011;26811;53.160;8.202;2023-05-29T21:53:58;53.22;;;6.43;;
41059;SDS011;26811;53.160;8.202;2023-05-29T21:58:58;47.20;;;6.60;;
41059;SDS011;26811;53.160;8.202;2023-05-29T22:03:59;52.75;;;7.07;;
41059;SDS011;26811;53.160;8.202;2023-05-29T22:09:01;52.22;;;6.93;;
41059;SDS011;26811;53.160;8.202;2023-05-29T22:14:01;53.00;;;7.20;;
41059;SDS011;26811;53.160;8.202;2023-05-29T22:19:02;51.05;;;7.38;;
41059;SDS011;26811;53.160;8.202;2023-05-29T22:24:04;44.83;;;8.27;;
41059;SDS011;26811;53.160;8.202;2023-05-29T22:29:05;45.85;;;7.45;;
41059;SDS011;26811;53.160;8.202;2023-05-29T22:34:05;52.72;;;7.43;;
41059;SDS011;26811;53.160;8.202;2023-05-29T22:39:06;53.13;;;7.25;;
41059;SDS011;26811;53.160;8.202;2023-05-29T22:44:06;59.17;;;8.32;;
41059;SDS011;26811;53.160;8.202;2023-05-29T22:49:07;52.88;;;6.57;;
41059;SDS011;26811;53.160;8.202;2023-05-29T22:54:08;48.45;;;7.50;;
41059;SDS011;26811;53.160;8.202;2023-05-29T22:59:09;39.38;;;6.60;;
41059;SDS011;26811;53.160;8.202;2023-05-29T23:04:09;44.47;;;6.38;;
41059;SDS011;26811;53.160;8.202;2023-05-29T23:09:10;39.97;;;6.65;;
41059;SDS011;26811;53.160;8.202;2023-05-29T23:14:11;38.05;;;6.80;;
41059;SDS011;26811;53.160;8.202;2023-05-29T23:19:12;43.00;;;6.72;;
41059;SDS011;26811;53.160;8.202;2023-05-29T23:24:12;49.25;;;6.80;;
41059;SDS011;26811;53.160;8.202;2023-05-29T23:29:13;45.30;;;6.93;;
41059;SDS011;26811;53.160;8.202;2023-05-29T23:34:14;44.13;;;7.68;;
41059;SDS011;26811;53.160;8.202;2023-05-29T23:39:15;38.47;;;7.72;;
41059;SDS011;26811;53.160;8.202;2023-05-29T23:44:16;47.33;;;8.07;;
41059;SDS011;26811;53.160;8.202;2023-05-29T23:49:16;42.70;;;8.32;;
41059;SDS011;26811;53.160;8.202;2023-05-29T23:54:17;47.08;;;8.63;;
41059;SDS011;26811;53.160;8.202;2023-05-29T23:59:17;42.67;;;8.30;;
